Flight Track Log - Related Links

Times and Time Zones

All times are in EDT time to prevent confusion due to time zone crossing. See the SWA3943 flight status page for this flight to view local times or setup timezone preferences in your user account.

Time Position Orientation Groundspeed Altitude Reporting Facility
EDT Latitude Longitude Course Direction KTS MPH feet Rate Location/Type
Wed 15:06:44 39.3667 -94.7167 360° North 203 234 3,500  Level Kansas TRACON
Wed 15:07:21 39.3981 -94.7531 318° Northwest 254 292 4,900 3,030 Climbing Kansas Center
Wed 15:08:23 39.3969 -94.8464 269° West 274 315 8,500 3,707 Climbing Kansas Center
Wed 15:09:24 39.3772 -94.9342 254° West 263 303 12,500 3,689 Climbing Kansas Center
Wed 15:10:25 39.3481 -95.0392 250° West 281 323 16,000 3,639 Climbing Kansas Center
Wed 15:11:26 39.2972 -95.1228 232° Southwest 275 316 19,900 2,855 Climbing Kansas Center
Wed 15:12:29 39.2497 -95.2003 232° Southwest 276 318 21,900 1,984 Climbing Kansas Center
Wed 15:13:30 39.1950 -95.2906 232° Southwest 313 360 24,000 2,262 Climbing Kansas Center
Wed 15:14:31 39.1333 -95.3914 232° Southwest 333 383 26,500 2,256 Climbing Kansas Center
Wed 15:15:35 39.0739 -95.4897 232° Southwest 336 387 28,700 1,824 Climbing Kansas Center
Wed 15:16:36 39.0172 -95.5814 232° Southwest 341 392 30,300 1,415 Climbing Kansas Center
Wed 15:17:38 38.9567 -95.6778 231° Southwest 359 413 31,600 1,366 Climbing Kansas Center
Wed 15:18:39 38.8869 -95.7933 232° Southwest 367 422 33,100 1,355 Climbing Kansas Center
Wed 15:19:42 38.8233 -95.8933 231° Southwest 376 433 34,400 1,392 Climbing Kansas Center
Wed 15:20:44 38.7517 -96.0092 232° Southwest 371 427 36,000 787 Climbing Kansas Center
Wed 15:21:44 38.6942 -96.1086 233° Southwest 364 419 36,000  Level Kansas Center
Wed 15:22:46 38.6222 -96.2175 230° Southwest 357 411 36,000  Level Kansas Center
Wed 15:23:47 38.5628 -96.3119 231° Southwest 356 410 36,000  Level Kansas Center
Wed 15:24:50 38.5042 -96.4061 232° Southwest 354 407 36,000  Level Kansas Center
Wed 15:25:51 38.4422 -96.5031 231° Southwest 356 410 36,000  Level Kansas Center
Wed 15:26:54 38.3731 -96.5886 224° Southwest 344 396 36,000 780 Level Kansas Center
Wed 15:27:54 38.2631 -96.6289 196° South 340 391 37,600 976 Climbing Kansas Center
Wed 15:28:57 38.1728 -96.6600 195° South 336 387 38,000 195 Climbing Kansas Center
Wed 15:29:57 38.0808 -96.6922 195° South 341 392 38,000  Level Kansas Center
Wed 15:31:02 37.9883 -96.7244 195° South 345 397 38,000  Level Kansas Center
Wed 15:32:02 37.8942 -96.7575 195° South 349 402 38,000  Level Kansas Center
Wed 15:33:02 37.8003 -96.7897 195° South 347 399 38,000  Level Kansas Center
Wed 15:34:05 37.7075 -96.8214 195° South 344 396 38,000  Level Kansas Center
Wed 15:35:09 37.6142 -96.8536 195° South 345 397 38,000  Level Kansas Center
Wed 15:36:09 37.5028 -96.8917 195° South 344 396 38,000  Level Kansas Center
Wed 15:37:11 37.4089 -96.9233 195° South 346 398 38,000  Level Kansas Center
Wed 15:38:14 37.3147 -96.9567 196° South 348 400 38,000  Level Kansas Center
Wed 15:39:14 37.2214 -96.9881 195° South 347 399 38,000  Level Kansas Center
Wed 15:40:17 37.1275 -97.0206 195° South 348 400 38,000  Level Kansas Center
Wed 15:41:17 37.0328 -97.0522 195° South 350 403 38,000  Level Kansas Center
Wed 15:42:21 36.9383 -97.0853 196° South 350 403 38,000  Level Kansas Center
Wed 15:43:23 36.8350 -97.1161 193° South 345 397 38,000  Level Kansas Center
Wed 15:44:25 36.7408 -97.1492 196° South 347 399 38,000  Level Kansas Center
Wed 15:45:25 36.6461 -97.1800 195° South 351 404 38,000  Level Kansas Center
Wed 15:46:29 36.5339 -97.2208 196° South 351 404 38,000  Level Kansas Center
Wed 15:47:29 36.4400 -97.2528 195° South 350 403 38,000  Level Kansas Center
Wed 15:48:31 36.3447 -97.2844 195° South 353 406 38,000  Level Kansas Center
Wed 15:49:34 36.2481 -97.3167 195° South 357 411 38,000  Level Kansas Center
Wed 15:50:35 36.1517 -97.3483 195° South 359 413 38,000  Level Kansas Center
Wed 15:51:37 36.0544 -97.3814 195° South 362 417 38,000  Level Kansas Center
Wed 15:52:39 35.9364 -97.4214 195° South 365 420 38,000  Level Kansas Center
Wed 15:53:41 35.8369 -97.4536 195° South 368 423 38,000  Level Kansas Center
Wed 15:54:43 35.7378 -97.4878 196° South 363 418 38,000  Level Fort Center
Wed 15:55:43 35.6378 -97.5208 195° South 373 429 38,000  Level Fort Center
Wed 15:56:43 35.5583 -97.5489 196° South 373 429 38,000  Level Fort Center
Wed 15:57:43 35.4333 -97.5919 196° South 378 435 38,000  Level Fort Center
Wed 15:58:43 35.3289 -97.6144 190° South 378 435 38,000  Level Fort Center
Wed 15:59:43 35.2183 -97.6067 177° South 384 442 38,000  Level Fort Center
Wed 16:00:43 35.1100 -97.5936 174° South 389 448 38,000  Level Fort Center
Wed 16:01:43 34.9994 -97.5858 177° South 389 448 38,000  Level Fort Center
Wed 16:02:43 34.8908 -97.5781 177° South 394 453 38,000 -800 Level Fort Center
Wed 16:03:43 34.7700 -97.5678 176° South 394 453 36,400 -2,400 Descending Fort Center
Wed 16:04:43 34.6636 -97.5600 177° South 394 453 33,200 -2,950 Descending Fort Center
Wed 16:05:43 34.5592 -97.5522 176° South 394 453 30,500 -2,400 Descending Fort Center
Wed 16:06:43 34.4569 -97.5444 176° South 382 440 28,400 -2,350 Descending Fort Center
Wed 16:07:43 34.3569 -97.5367 176° South 372 428 25,800 -2,200 Descending Fort Center
Wed 16:08:43 34.2589 -97.5292 176° South 362 417 24,000 -900 Descending Fort Center
Wed 16:09:43 34.1669 -97.5239 177° South 351 404 24,000  Level Fort Center
Wed 16:10:43 34.0753 -97.5139 175° South 346 398 24,000 -200 Level Fort Center
Wed 16:11:43 33.9897 -97.5061 176° South 341 392 23,600 -1,350 Descending Fort Center
Wed 16:12:43 33.9000 -97.5011 177° South 335 386 21,300 -2,300 Descending Fort Center
Wed 16:13:43 33.8122 -97.4933 176° South 328 377 19,000 -2,200 Descending Fort Center
Wed 16:14:43 33.7308 -97.4883 177° South 311 358 16,900 -2,350 Descending Fort Center
Wed 16:15:43 33.6475 -97.4808 176° South 299 344 14,300 -2,650 Descending Fort Center
Wed 16:16:43 33.5556 -97.4758 177° South 313 360 11,600 -2,150 Descending Fort Center
Wed 16:17:43 33.4575 -97.4658 175° South 331 381 10,000 -1,150 Descending Fort Center
Wed 16:18:43 33.3969 -97.4136 144° Southeast 291 335 9,300 -1,050 Descending Fort Center
Wed 16:19:43 33.3614 -97.3239 115° Southeast 277 319 7,900 -1,500 Descending Fort Center
Wed 16:20:43 33.3633 -97.2344 88° East 279 321 6,300 -1,550 Descending Fort Center
Wed 16:21:43 33.3550 -97.1300 95° East 302 348 4,800 -1,150 Descending Fort Center
Wed 16:22:43 33.3442 -97.0281 97° East 302 348 4,000 -400 Descending Fort Center
Wed 16:23:43 33.3106 -96.9536 118° Southeast 278 320 4,000  Level Fort Center
Wed 16:24:43 33.2581 -96.8744 128° Southeast 278 320 4,000  Level Fort Center
Wed 16:25:43 33.2181 -96.8050 125° Southeast 272 313 4,000  Level Fort Center
Wed 16:26:43 33.1428 -96.7558 151° Southeast 272 313 4,000  Level Fort Center
Wed 16:27:43 33.0778 -96.7192 155° Southeast 285 328 4,000  Level Fort Center
Wed 16:28:07 33.0333 -96.7000 160° South 285 328 4,000  Level Dallas TRACON
Wed 16:29:14 32.9667 -96.6500 148° Southeast 245 282 4,000  Level Dallas TRACON
Wed 16:30:14 32.9167 -96.6167 151° Southeast 250 288 4,000 -202 Level Dallas TRACON
Wed 16:30:43 32.8789 -96.6094 171° South 250 288 3,700 -500 Descending Fort Center
Wed 16:32:14 32.7833 -96.6167 184° South 241 277 3,000 -462 Descending Dallas TRACON

Login

Don't have an account? Register now (free) for customized features, flight alerts, and more!